TAF and METAR

Decoding for American and Canadian METARs and TAFs is not fully implemented.
No METAR available for General Servando Canales International Airport

TAF for General Servando Canales International Airport

TAF MMMA 261710Z 2618/2718 32015G25KT P6SM SCT080 BECMG 2702/2703 32010G20KT FM271500 30010KT P6SM SKC
Report created 26. februar 2020 18:10

between 26. februar 2020 19:00 - 27. februar 2020 19:00

wind 15 knots from NW (320°) with gusts up to 25 knots
General Servando Canales International Airport in Mexico at 8m

Latest 5 airports